PWSweather.com
Personal Weather Stations
Station Observations
N3SME
Betz Creek, Wilmington Island, Savannah, GA 31410

Betz Creek, Wilmington IslandSavannah, GA 31410

Lat: 32.023021, Lon: -80.959452

Elevation: 15

Station Type: Ambient

High Low Average
Temperature 80.2°F26.8°C 66.9°F19.4°C 71.5°F21.9°C
Dew Point 67.7°F19.8°C 62.7°F17.1°C 65.7°F18.7°C
Winds 6.9 mph 11.1 kmh Calm Calm 3.0 mph SW4.8 kmh SW
Wind Gusts 19.0 mph30.6 kmh 3.8 mph6.1 kmh 9.0 mph14.5 kmh
Humidity 96% 64% 83%
Pressure 29.59 in1002.0 mb 29.47 in998.0 mb -
Precipitation 0.00 in0.0 mm - -
Hour Temp Dew Point Humidity Winds Wind Gusts Pressure Precip Precip Rate Daily Precip Total
12:05 AM 69.6°F20.9°C 66.5°F19.2°C 90% 2.2 mph S3.5 kmh S 4.5 mph7.2 kmh 29.54 in1000.3 mb 0.00 in0.0 mm 0.00 in/hr0.0 mm/hr 0.01 in0.3 mm
12:20 AM 69.3°F20.7°C 66.2°F19.0°C 90% 1.6 mph SW2.6 kmh SW 6.9 mph11.1 kmh 29.54 in1000.3 mb 0.00 in0.0 mm 0.00 in/hr0.0 mm/hr 0.01 in0.3 mm
12:35 AM 68.7°F20.4°C 66.0°F18.9°C 91% 0.7 mph SW1.1 kmh SW 6.9 mph11.1 kmh 29.54 in1000.3 mb 0.00 in0.0 mm 0.00 in/hr0.0 mm/hr 0.01 in0.3 mm
12:50 AM 68.4°F20.2°C 65.6°F18.7°C 91% 2.2 mph SW3.5 kmh SW 4.5 mph7.2 kmh 29.54 in1000.3 mb 0.00 in0.0 mm 0.00 in/hr0.0 mm/hr 0.01 in0.3 mm
01:04 AM 67.8°F19.9°C 65.4°F18.6°C 92% 1.6 mph SSW2.6 kmh SSW 6.9 mph11.1 kmh 29.55 in1000.7 mb 0.00 in0.0 mm 0.00 in/hr0.0 mm/hr 0.00 in0.0 mm
01:19 AM 67.8°F19.9°C 65.7°F18.7°C 93% 1.6 mph SW2.6 kmh SW 5.4 mph8.7 kmh 29.54 in1000.3 mb 0.00 in0.0 mm 0.00 in/hr0.0 mm/hr 0.00 in0.0 mm
01:34 AM 68.0°F20.0°C 65.9°F18.8°C 93% 2.2 mph SW3.5 kmh SW 6.0 mph9.7 kmh 29.54 in1000.3 mb 0.00 in0.0 mm 0.00 in/hr0.0 mm/hr 0.00 in0.0 mm
01:49 AM 68.4°F20.2°C 66.2°F19.0°C 93% 3.8 mph SW6.1 kmh SW 9.8 mph15.8 kmh 29.55 in1000.7 mb 0.00 in0.0 mm 0.00 in/hr0.0 mm/hr 0.00 in0.0 mm
02:05 AM 68.7°F20.4°C 66.3°F19.1°C 92% 3.1 mph SW5.0 kmh SW 8.3 mph13.4 kmh 29.55 in1000.7 mb 0.00 in0.0 mm 0.00 in/hr0.0 mm/hr 0.00 in0.0 mm
02:20 AM 68.7°F20.4°C 66.3°F19.1°C 92% 3.1 mph SW5.0 kmh SW 7.6 mph12.2 kmh 29.55 in1000.7 mb 0.00 in0.0 mm 0.00 in/hr0.0 mm/hr 0.00 in0.0 mm
02:34 AM 68.5°F20.3°C 66.1°F18.9°C 92% 2.2 mph SW3.5 kmh SW 6.9 mph11.1 kmh 29.55 in1000.7 mb 0.00 in0.0 mm 0.00 in/hr0.0 mm/hr 0.00 in0.0 mm
02:49 AM 68.4°F20.2°C 66.2°F19.0°C 93% 2.2 mph SW3.5 kmh SW 7.6 mph12.2 kmh 29.54 in1000.3 mb 0.00 in0.0 mm 0.00 in/hr0.0 mm/hr 0.00 in0.0 mm
03:04 AM 68.4°F20.2°C 66.2°F19.0°C 93% 3.1 mph SW5.0 kmh SW 9.8 mph15.8 kmh 29.54 in1000.3 mb 0.00 in0.0 mm 0.00 in/hr0.0 mm/hr 0.00 in0.0 mm
03:19 AM 68.2°F20.1°C 66.4°F19.1°C 94% 2.2 mph SW3.5 kmh SW 8.3 mph13.4 kmh 29.54 in1000.3 mb 0.00 in0.0 mm 0.00 in/hr0.0 mm/hr 0.00 in0.0 mm
03:34 AM 68.2°F20.1°C 66.4°F19.1°C 94% 3.1 mph SW5.0 kmh SW 7.6 mph12.2 kmh 29.54 in1000.3 mb 0.00 in0.0 mm 0.00 in/hr0.0 mm/hr 0.00 in0.0 mm
03:49 AM 68.2°F20.1°C 66.4°F19.1°C 94% 1.6 mph SW2.6 kmh SW 6.9 mph11.1 kmh 29.54 in1000.3 mb 0.00 in0.0 mm 0.00 in/hr0.0 mm/hr 0.00 in0.0 mm
04:04 AM 68.2°F20.1°C 66.4°F19.1°C 94% 3.1 mph SW5.0 kmh SW 7.6 mph12.2 kmh 29.54 in1000.3 mb 0.00 in0.0 mm 0.00 in/hr0.0 mm/hr 0.00 in0.0 mm
04:19 AM 68.0°F20.0°C 66.2°F19.0°C 94% 3.1 mph WSW5.0 kmh WSW 7.6 mph12.2 kmh 29.54 in1000.3 mb 0.00 in0.0 mm 0.00 in/hr0.0 mm/hr 0.00 in0.0 mm
04:34 AM 68.0°F20.0°C 66.2°F19.0°C 94% 3.1 mph SW5.0 kmh SW 7.6 mph12.2 kmh 29.54 in1000.3 mb 0.00 in0.0 mm 0.00 in/hr0.0 mm/hr 0.00 in0.0 mm
04:49 AM 68.0°F20.0°C 66.2°F19.0°C 94% 1.6 mph SW2.6 kmh SW 6.9 mph11.1 kmh 29.54 in1000.3 mb 0.00 in0.0 mm 0.00 in/hr0.0 mm/hr 0.00 in0.0 mm
05:04 AM 67.8°F19.9°C 66.3°F19.1°C 95% 0.7 mph SSW1.1 kmh SSW 6.9 mph11.1 kmh 29.54 in1000.3 mb 0.00 in0.0 mm 0.00 in/hr0.0 mm/hr 0.00 in0.0 mm
05:19 AM 67.6°F19.8°C 66.1°F18.9°C 95% Calm Calm 6.0 mph9.7 kmh 29.54 in1000.3 mb 0.00 in0.0 mm 0.00 in/hr0.0 mm/hr 0.00 in0.0 mm
05:34 AM 67.5°F19.7°C 66.3°F19.1°C 96% 1.6 mph SW2.6 kmh SW 5.4 mph8.7 kmh 29.54 in1000.3 mb 0.00 in0.0 mm 0.00 in/hr0.0 mm/hr 0.00 in0.0 mm
05:49 AM 67.3°F19.6°C 66.1°F18.9°C 96% 1.6 mph SW2.6 kmh SW 3.8 mph6.1 kmh 29.55 in1000.7 mb 0.00 in0.0 mm 0.00 in/hr0.0 mm/hr 0.00 in0.0 mm
06:04 AM 67.3°F19.6°C 66.1°F18.9°C 96% 2.2 mph SW3.5 kmh SW 6.0 mph9.7 kmh 29.55 in1000.7 mb 0.00 in0.0 mm 0.00 in/hr0.0 mm/hr 0.00 in0.0 mm
06:19 AM 67.3°F19.6°C 66.1°F18.9°C 96% 1.6 mph SSW2.6 kmh SSW 5.4 mph8.7 kmh 29.56 in1001.0 mb 0.00 in0.0 mm 0.00 in/hr0.0 mm/hr 0.00 in0.0 mm
06:34 AM 67.3°F19.6°C 66.1°F18.9°C 96% 2.2 mph WSW3.5 kmh WSW 6.9 mph11.1 kmh 29.56 in1001.0 mb 0.00 in0.0 mm 0.00 in/hr0.0 mm/hr 0.00 in0.0 mm
06:49 AM 67.5°F19.7°C 66.0°F18.9°C 95% 2.2 mph WSW3.5 kmh WSW 9.8 mph15.8 kmh 29.57 in1001.4 mb 0.00 in0.0 mm 0.00 in/hr0.0 mm/hr 0.00 in0.0 mm
07:04 AM 67.5°F19.7°C 66.0°F18.9°C 95% 2.2 mph SW3.5 kmh SW 5.4 mph8.7 kmh 29.58 in1001.7 mb 0.00 in0.0 mm 0.00 in/hr0.0 mm/hr 0.00 in0.0 mm
07:19 AM 67.5°F19.7°C 66.0°F18.9°C 95% 0.7 mph SW1.1 kmh SW 5.4 mph8.7 kmh 29.58 in1001.7 mb 0.00 in0.0 mm 0.00 in/hr0.0 mm/hr 0.00 in0.0 mm
07:34 AM 67.5°F19.7°C 66.0°F18.9°C 95% 0.7 mph W1.1 kmh W 6.9 mph11.1 kmh 29.58 in1001.7 mb 0.00 in0.0 mm 0.00 in/hr0.0 mm/hr 0.00 in0.0 mm
07:49 AM 67.3°F19.6°C 65.8°F18.8°C 95% 2.2 mph SW3.5 kmh SW 6.0 mph9.7 kmh 29.57 in1001.4 mb 0.00 in0.0 mm 0.00 in/hr0.0 mm/hr 0.00 in0.0 mm
08:05 AM 67.1°F19.5°C 65.6°F18.7°C 95% 1.6 mph SSW2.6 kmh SSW 3.8 mph6.1 kmh 29.57 in1001.4 mb 0.00 in0.0 mm 0.00 in/hr0.0 mm/hr 0.00 in0.0 mm
08:20 AM 66.9°F19.4°C 65.4°F18.6°C 95% 0.7 mph SSW1.1 kmh SSW 3.8 mph6.1 kmh 29.58 in1001.7 mb 0.00 in0.0 mm 0.00 in/hr0.0 mm/hr 0.00 in0.0 mm
08:34 AM 67.3°F19.6°C 65.8°F18.8°C 95% 1.6 mph SW2.6 kmh SW 4.5 mph7.2 kmh 29.58 in1001.7 mb 0.00 in0.0 mm 0.00 in/hr0.0 mm/hr 0.00 in0.0 mm
08:49 AM 68.2°F20.1°C 66.4°F19.1°C 94% 1.6 mph SW2.6 kmh SW 4.5 mph7.2 kmh 29.59 in1002.0 mb 0.00 in0.0 mm 0.00 in/hr0.0 mm/hr 0.00 in0.0 mm
09:04 AM 68.4°F20.2°C 66.2°F19.0°C 93% 0.7 mph WSW1.1 kmh WSW 6.0 mph9.7 kmh 29.59 in1002.0 mb 0.00 in0.0 mm 0.00 in/hr0.0 mm/hr 0.00 in0.0 mm
09:19 AM 68.5°F20.3°C 66.1°F18.9°C 92% 2.2 mph WSW3.5 kmh WSW 8.3 mph13.4 kmh 29.59 in1002.0 mb 0.00 in0.0 mm 0.00 in/hr0.0 mm/hr 0.00 in0.0 mm
09:34 AM 68.9°F20.5°C 66.5°F19.2°C 92% 2.2 mph SSW3.5 kmh SSW 6.9 mph11.1 kmh 29.57 in1001.4 mb 0.00 in0.0 mm 0.00 in/hr0.0 mm/hr 0.00 in0.0 mm
09:49 AM 69.4°F20.8°C 66.3°F19.1°C 90% 2.2 mph SSW3.5 kmh SSW 6.9 mph11.1 kmh 29.58 in1001.7 mb 0.00 in0.0 mm 0.00 in/hr0.0 mm/hr 0.00 in0.0 mm
10:05 AM 70.9°F21.6°C 67.1°F19.5°C 88% 3.8 mph SW6.1 kmh SW 8.3 mph13.4 kmh 29.59 in1002.0 mb 0.00 in0.0 mm 0.00 in/hr0.0 mm/hr 0.00 in0.0 mm
10:20 AM 72.5°F22.5°C 66.2°F19.0°C 81% 3.8 mph WSW6.1 kmh WSW 10.7 mph17.2 kmh 29.59 in1002.0 mb 0.00 in0.0 mm 0.00 in/hr0.0 mm/hr 0.00 in0.0 mm
10:35 AM 72.0°F22.2°C 66.8°F19.3°C 84% 2.2 mph SW3.5 kmh SW 11.4 mph18.3 kmh 29.59 in1002.0 mb 0.00 in0.0 mm 0.00 in/hr0.0 mm/hr 0.00 in0.0 mm
10:50 AM 75.0°F23.9°C 67.5°F19.7°C 78% 2.2 mph WSW3.5 kmh WSW 7.6 mph12.2 kmh 29.59 in1002.0 mb 0.00 in0.0 mm 0.00 in/hr0.0 mm/hr 0.00 in0.0 mm
11:06 AM 76.5°F24.7°C 66.9°F19.4°C 73% 3.8 mph WSW6.1 kmh WSW 8.3 mph13.4 kmh 29.59 in1002.0 mb 0.00 in0.0 mm 0.00 in/hr0.0 mm/hr 0.00 in0.0 mm
11:20 AM 77.5°F25.3°C 67.1°F19.5°C 71% 3.8 mph WNW6.1 kmh WNW 8.3 mph13.4 kmh 29.59 in1002.0 mb 0.00 in0.0 mm 0.00 in/hr0.0 mm/hr 0.00 in0.0 mm
11:35 AM 78.6°F25.9°C 67.7°F19.8°C 70% 3.8 mph SW6.1 kmh SW 6.9 mph11.1 kmh 29.59 in1002.0 mb 0.00 in0.0 mm 0.00 in/hr0.0 mm/hr 0.00 in0.0 mm
11:50 AM 77.5°F25.3°C 66.7°F19.3°C 70% 4.5 mph SSW7.2 kmh SSW 10.7 mph17.2 kmh 29.59 in1002.0 mb 0.00 in0.0 mm 0.00 in/hr0.0 mm/hr 0.00 in0.0 mm
12:05 PM 77.5°F25.3°C 67.1°F19.5°C 71% 2.2 mph S3.5 kmh S 6.9 mph11.1 kmh 29.59 in1002.0 mb 0.00 in0.0 mm 0.00 in/hr0.0 mm/hr 0.00 in0.0 mm
12:20 PM 79.3°F26.3°C 67.5°F19.7°C 68% 3.1 mph SSW5.0 kmh SSW 7.6 mph12.2 kmh 29.59 in1002.0 mb 0.00 in0.0 mm 0.00 in/hr0.0 mm/hr 0.00 in0.0 mm
12:34 PM 80.2°F26.8°C 67.5°F19.7°C 66% 3.8 mph SSW6.1 kmh SSW 9.2 mph14.8 kmh 29.58 in1001.7 mb 0.00 in0.0 mm 0.00 in/hr0.0 mm/hr 0.00 in0.0 mm
12:49 PM 79.7°F26.5°C 67.4°F19.7°C 67% 5.4 mph SSW8.7 kmh SSW 10.7 mph17.2 kmh 29.57 in1001.4 mb 0.00 in0.0 mm 0.00 in/hr0.0 mm/hr 0.00 in0.0 mm
01:04 PM 78.6°F25.9°C 67.3°F19.6°C 69% 4.5 mph S7.2 kmh S 9.8 mph15.8 kmh 29.57 in1001.4 mb 0.00 in0.0 mm 0.00 in/hr0.0 mm/hr 0.00 in0.0 mm
01:19 PM 79.0°F26.1°C 67.6°F19.8°C 69% 3.8 mph S6.1 kmh S 6.9 mph11.1 kmh 29.56 in1001.0 mb 0.00 in0.0 mm 0.00 in/hr0.0 mm/hr 0.00 in0.0 mm
01:34 PM 79.5°F26.4°C 67.2°F19.6°C 67% 3.8 mph SSW6.1 kmh SSW 9.2 mph14.8 kmh 29.56 in1001.0 mb 0.00 in0.0 mm 0.00 in/hr0.0 mm/hr 0.00 in0.0 mm
01:49 PM 79.7°F26.5°C 66.0°F18.9°C 64% 5.4 mph SSW8.7 kmh SSW 11.4 mph18.3 kmh 29.54 in1000.3 mb 0.00 in0.0 mm 0.00 in/hr0.0 mm/hr 0.00 in0.0 mm
02:05 PM 77.2°F25.1°C 65.9°F18.8°C 69% 4.5 mph S7.2 kmh S 12.1 mph19.5 kmh 29.54 in1000.3 mb 0.00 in0.0 mm 0.00 in/hr0.0 mm/hr 0.00 in0.0 mm
02:20 PM 75.6°F24.2°C 66.1°F18.9°C 73% 4.5 mph S7.2 kmh S 11.4 mph18.3 kmh 29.54 in1000.3 mb 0.00 in0.0 mm 0.00 in/hr0.0 mm/hr 0.00 in0.0 mm
02:35 PM 74.7°F23.7°C 65.2°F18.4°C 73% 5.4 mph S8.7 kmh S 12.1 mph19.5 kmh 29.52 in999.7 mb 0.00 in0.0 mm 0.00 in/hr0.0 mm/hr 0.00 in0.0 mm
02:50 PM 75.2°F24.0°C 65.3°F18.5°C 72% 4.5 mph SSW7.2 kmh SSW 8.3 mph13.4 kmh 29.51 in999.3 mb 0.00 in0.0 mm 0.00 in/hr0.0 mm/hr 0.00 in0.0 mm
03:05 PM 74.8°F23.8°C 65.4°F18.6°C 73% 4.5 mph S7.2 kmh S 12.1 mph19.5 kmh 29.50 in999.0 mb 0.00 in0.0 mm 0.00 in/hr0.0 mm/hr 0.00 in0.0 mm
03:20 PM 75.0°F23.9°C 65.1°F18.4°C 72% 2.2 mph SSW3.5 kmh SSW 12.1 mph19.5 kmh 29.49 in998.6 mb 0.00 in0.0 mm 0.00 in/hr0.0 mm/hr 0.00 in0.0 mm
03:35 PM 73.4°F23.0°C 64.0°F17.8°C 73% 6.0 mph S9.7 kmh S 16.8 mph27.0 kmh 29.49 in998.6 mb 0.00 in0.0 mm 0.00 in/hr0.0 mm/hr 0.00 in0.0 mm
03:50 PM 73.6°F23.1°C 64.2°F17.9°C 73% 3.8 mph S6.1 kmh S 13.0 mph20.9 kmh 29.49 in998.6 mb 0.00 in0.0 mm 0.00 in/hr0.0 mm/hr 0.00 in0.0 mm
04:05 PM 73.0°F22.8°C 64.1°F17.8°C 74% 6.0 mph S9.7 kmh S 13.0 mph20.9 kmh 29.50 in999.0 mb 0.00 in0.0 mm 0.00 in/hr0.0 mm/hr 0.00 in0.0 mm
04:20 PM 74.5°F23.6°C 65.0°F18.3°C 73% 3.1 mph SSW5.0 kmh SSW 13.0 mph20.9 kmh 29.50 in999.0 mb 0.00 in0.0 mm 0.00 in/hr0.0 mm/hr 0.00 in0.0 mm
04:34 PM 74.8°F23.8°C 64.1°F17.8°C 70% 5.4 mph SSW8.7 kmh SSW 15.2 mph24.5 kmh 29.49 in998.6 mb 0.00 in0.0 mm 0.00 in/hr0.0 mm/hr 0.00 in0.0 mm
04:49 PM 75.2°F24.0°C 64.0°F17.8°C 69% 5.4 mph SSW8.7 kmh SSW 13.6 mph21.9 kmh 29.49 in998.6 mb 0.00 in0.0 mm 0.00 in/hr0.0 mm/hr 0.00 in0.0 mm
05:04 PM 76.1°F24.5°C 64.4°F18.0°C 68% 4.5 mph SW7.2 kmh SW 13.6 mph21.9 kmh 29.49 in998.6 mb 0.00 in0.0 mm 0.00 in/hr0.0 mm/hr 0.00 in0.0 mm
05:19 PM 74.3°F23.5°C 63.6°F17.6°C 70% 5.4 mph S8.7 kmh S 15.9 mph25.6 kmh 29.49 in998.6 mb 0.00 in0.0 mm 0.00 in/hr0.0 mm/hr 0.00 in0.0 mm
05:34 PM 74.5°F23.6°C 63.8°F17.7°C 70% 3.8 mph SW6.1 kmh SW 15.2 mph24.5 kmh 29.49 in998.6 mb 0.00 in0.0 mm 0.00 in/hr0.0 mm/hr 0.00 in0.0 mm
05:49 PM 73.9°F23.3°C 63.7°F17.6°C 71% 4.5 mph SW7.2 kmh SW 11.4 mph18.3 kmh 29.49 in998.6 mb 0.00 in0.0 mm 0.00 in/hr0.0 mm/hr 0.00 in0.0 mm
06:05 PM 72.9°F22.7°C 63.1°F17.3°C 72% 6.0 mph SSW9.7 kmh SSW 13.6 mph21.9 kmh 29.50 in999.0 mb 0.00 in0.0 mm 0.00 in/hr0.0 mm/hr 0.00 in0.0 mm
06:20 PM 71.1°F21.7°C 62.9°F17.2°C 76% 4.5 mph S7.2 kmh S 15.9 mph25.6 kmh 29.50 in999.0 mb 0.00 in0.0 mm 0.00 in/hr0.0 mm/hr 0.00 in0.0 mm
06:35 PM 69.4°F20.8°C 62.9°F17.2°C 80% 4.5 mph SW7.2 kmh SW 19.0 mph30.6 kmh 29.49 in998.6 mb 0.00 in0.0 mm 0.00 in/hr0.0 mm/hr 0.00 in0.0 mm
06:50 PM 68.5°F20.3°C 63.1°F17.3°C 83% 3.8 mph S6.1 kmh S 15.2 mph24.5 kmh 29.48 in998.3 mb 0.00 in0.0 mm 0.00 in/hr0.0 mm/hr 0.00 in0.0 mm
07:05 PM 68.2°F20.1°C 63.1°F17.3°C 84% 6.9 mph SW11.1 kmh SW 13.0 mph20.9 kmh 29.48 in998.3 mb 0.00 in0.0 mm 0.00 in/hr0.0 mm/hr 0.00 in0.0 mm
07:20 PM 67.6°F19.8°C 62.9°F17.2°C 85% 2.2 mph S3.5 kmh S 10.7 mph17.2 kmh 29.48 in998.3 mb 0.00 in0.0 mm 0.00 in/hr0.0 mm/hr 0.00 in0.0 mm
07:35 PM 67.1°F19.5°C 62.7°F17.1°C 86% 1.6 mph SSW2.6 kmh SSW 12.1 mph19.5 kmh 29.47 in998.0 mb 0.00 in0.0 mm 0.00 in/hr0.0 mm/hr 0.00 in0.0 mm
07:50 PM 66.7°F19.3°C 62.7°F17.1°C 87% 4.5 mph SSW7.2 kmh SSW 13.6 mph21.9 kmh 29.47 in998.0 mb 0.00 in0.0 mm 0.00 in/hr0.0 mm/hr 0.00 in0.0 mm
08:05 PM 66.6°F19.2°C 62.9°F17.2°C 88% 3.8 mph S6.1 kmh S 11.4 mph18.3 kmh 29.47 in998.0 mb 0.00 in0.0 mm 0.00 in/hr0.0 mm/hr 0.00 in0.0 mm
08:20 PM 66.6°F19.2°C 62.9°F17.2°C 88% 3.1 mph SSW5.0 kmh SSW 13.0 mph20.9 kmh 29.47 in998.0 mb 0.00 in0.0 mm 0.00 in/hr0.0 mm/hr 0.00 in0.0 mm
08:35 PM 66.6°F19.2°C 62.5°F16.9°C 87% 5.4 mph S8.7 kmh S 10.7 mph17.2 kmh 29.47 in998.0 mb 0.00 in0.0 mm 0.00 in/hr0.0 mm/hr 0.00 in0.0 mm
08:50 PM 66.6°F19.2°C 62.5°F16.9°C 87% 3.1 mph SSW5.0 kmh SSW 10.7 mph17.2 kmh 29.47 in998.0 mb 0.00 in0.0 mm 0.00 in/hr0.0 mm/hr 0.00 in0.0 mm
09:04 PM 66.7°F19.3°C 62.7°F17.1°C 87% 3.1 mph S5.0 kmh S 9.8 mph15.8 kmh 29.48 in998.3 mb 0.00 in0.0 mm 0.00 in/hr0.0 mm/hr 0.00 in0.0 mm
09:19 PM 66.6°F19.2°C 62.5°F16.9°C 87% 4.5 mph SW7.2 kmh SW 13.0 mph20.9 kmh 29.48 in998.3 mb 0.00 in0.0 mm 0.00 in/hr0.0 mm/hr 0.00 in0.0 mm
09:34 PM 66.9°F19.4°C 62.5°F16.9°C 86% 4.5 mph SSW7.2 kmh SSW 13.0 mph20.9 kmh 29.48 in998.3 mb 0.00 in0.0 mm 0.00 in/hr0.0 mm/hr 0.00 in0.0 mm
09:49 PM 67.1°F19.5°C 62.4°F16.9°C 85% 5.4 mph SSW8.7 kmh SSW 14.5 mph23.3 kmh 29.48 in998.3 mb 0.00 in0.0 mm 0.00 in/hr0.0 mm/hr 0.00 in0.0 mm
10:05 PM 66.7°F19.3°C 62.4°F16.9°C 86% 2.2 mph SSW3.5 kmh SSW 8.3 mph13.4 kmh 29.48 in998.3 mb 0.00 in0.0 mm 0.00 in/hr0.0 mm/hr 0.00 in0.0 mm
10:20 PM 66.6°F19.2°C 62.5°F16.9°C 87% 3.8 mph SSW6.1 kmh SSW 13.6 mph21.9 kmh 29.48 in998.3 mb 0.00 in0.0 mm 0.00 in/hr0.0 mm/hr 0.00 in0.0 mm
10:35 PM 66.2°F19.0°C 62.8°F17.1°C 89% 3.1 mph SSW5.0 kmh SSW 9.2 mph14.8 kmh 29.48 in998.3 mb 0.00 in0.0 mm 0.00 in/hr0.0 mm/hr 0.00 in0.0 mm
10:50 PM 66.2°F19.0°C 62.8°F17.1°C 89% 3.8 mph S6.1 kmh S 12.1 mph19.5 kmh 29.48 in998.3 mb 0.00 in0.0 mm 0.00 in/hr0.0 mm/hr 0.00 in0.0 mm
11:05 PM 66.2°F19.0°C 62.8°F17.1°C 89% 3.1 mph S5.0 kmh S 9.8 mph15.8 kmh 29.47 in998.0 mb 0.00 in0.0 mm 0.00 in/hr0.0 mm/hr 0.00 in0.0 mm
11:20 PM 66.2°F19.0°C 62.8°F17.1°C 89% 2.2 mph SSW3.5 kmh SSW 10.7 mph17.2 kmh 29.47 in998.0 mb 0.00 in0.0 mm 0.00 in/hr0.0 mm/hr 0.00 in0.0 mm
11:35 PM 66.2°F19.0°C 62.8°F17.1°C 89% 2.2 mph S3.5 kmh S 12.1 mph19.5 kmh 29.46 in997.6 mb 0.00 in0.0 mm 0.00 in/hr0.0 mm/hr 0.00 in0.0 mm
11:50 PM 66.2°F19.0°C 63.2°F17.3°C 90% 6.0 mph SSW9.7 kmh SSW 13.0 mph20.9 kmh 29.46 in997.6 mb 0.00 in0.0 mm 0.00 in/hr0.0 mm/hr 0.00 in0.0 mm